National Weather Service Raw Text Product

Displaying AFOS PIL: TAFFOD Received: 2018-12-06 05:21 UTC


253 
FTUS43 KDMX 060521
TAFFOD
TAF
KFOD 060521Z 0606/0706 33008KT P6SM OVC015
     FM061500 33008KT P6SM FEW030=